Time;durP1;ratioP1;P1;durP2;ratioP2;P2;SDS_P1;SDS_P2;PMS_P1;PMS_P2;Temp;Humidity;BMP_temperature;BMP_pressure;BME280_temperature;BME280_humidity;BME280_pressure;Samples;Min_cycle;Max_cycle;Signal;HPM_P1;HPM_P2
2022/03/02 00:00:14;;;;;;;1.00;0.97;;;8.70;99.90;8.90;102446.00;;;;5113471;28;20667;-78
2022/03/02 00:02:43;;;;;;;1.50;1.40;;;8.60;99.90;8.20;102495.00;;;;5115410;28;20192;-78
2022/03/02 00:05:17;;;;;;;0.80;0.80;;;8.60;99.90;8.50;102495.00;;;;5114263;28;20165;-77
2022/03/02 00:07:51;;;;;;;0.77;0.77;;;8.50;99.90;8.80;102495.00;;;;5115116;28;20180;-78
2022/03/02 00:10:25;;;;;;;2.37;2.27;;;8.70;99.90;9.00;102489.00;;;;5115668;28;20216;-77
2022/03/02 00:12:52;;;;;;;1.73;1.63;;;8.80;99.90;8.90;102480.00;;;;5114770;28;20218;-78
2022/03/02 00:15:29;;;;;;;0.20;0.20;;;8.80;99.90;8.40;102489.00;;;;5097412;28;20684;-76
2022/03/02 00:17:54;;;;;;;0.20;0.20;;;8.50;99.90;8.80;102492.00;;;;5113458;28;20611;-78
2022/03/02 00:20:23;;;;;;;0.60;0.60;;;8.50;99.90;8.60;102488.00;;;;5097698;28;20241;-75
2022/03/02 00:22:52;;;;;;;0.20;0.20;;;8.40;99.90;9.10;102473.00;;;;5114635;28;20184;-75
2022/03/02 00:25:27;;;;;;;0.70;0.70;;;8.60;99.90;8.90;102488.00;;;;5114062;28;20172;-76
2022/03/02 00:27:56;;;;;;;0.30;0.30;;;8.60;99.90;8.40;102482.00;;;;5102711;28;20188;-76
2022/03/02 00:30:28;;;;;;;0.60;0.60;;;8.50;99.90;8.90;102496.00;;;;5093382;28;20172;-76
2022/03/02 00:32:55;;;;;;;0.30;0.30;;;8.60;99.90;8.60;102486.00;;;;5094521;28;20246;-76
2022/03/02 00:35:23;;;;;;;0.57;0.57;;;8.60;99.90;8.20;102454.00;;;;5093053;28;20170;-75
2022/03/02 00:37:49;;;;;;;2.53;1.30;;;8.40;99.90;8.00;102480.00;;;;5094046;28;20616;-75
2022/03/02 00:40:20;;;;;;;0.20;0.20;;;8.20;99.90;7.80;102480.00;;;;5076053;28;20223;-76
2022/03/02 00:42:52;;;;;;;0.20;0.20;;;8.00;99.90;8.20;102476.00;;;;5094624;28;20663;-76
2022/03/02 00:45:21;;;;;;;0.30;0.30;;;8.10;99.90;8.40;102460.00;;;;5077167;28;20181;-76
2022/03/02 00:47:55;;;;;;;0.47;0.43;;;8.20;99.90;8.80;102469.00;;;;5076075;28;20208;-75
2022/03/02 00:50:26;;;;;;;9.50;2.20;;;8.40;99.90;8.90;102459.00;;;;5092127;28;20171;-76
2022/03/02 00:52:55;;;;;;;1.63;1.53;;;8.50;99.90;8.80;102471.00;;;;5075978;28;20563;-76
2022/03/02 00:55:29;;;;;;;0.93;0.93;;;8.50;99.90;8.70;102466.00;;;;5075339;28;20186;-76
2022/03/02 00:58:05;;;;;;;0.20;0.20;;;8.50;99.90;8.60;102465.00;;;;5093547;28;20208;-76
2022/03/02 01:00:31;;;;;;;0.20;0.20;;;8.40;99.90;7.80;102464.00;;;;5092877;28;20177;-76
2022/03/02 01:02:57;;;;;;;0.20;0.20;;;8.20;99.90;7.80;102453.00;;;;5092566;28;20181;-75
2022/03/02 01:05:31;;;;;;;0.93;0.93;;;8.00;99.90;7.50;102459.00;;;;5076364;28;20180;-76
2022/03/02 01:08:09;;;;;;;0.93;0.93;;;7.80;99.90;7.60;102439.00;;;;5076133;28;20629;-76
2022/03/02 01:10:46;;;;;;;1.17;1.17;;;7.70;99.90;8.00;102433.00;;;;5091871;28;20173;-75
2022/03/02 01:13:17;;;;;;;0.30;0.30;;;7.80;99.90;8.30;102448.00;;;;5076622;28;20212;-76
2022/03/02 01:15:45;;;;;;;6.73;6.10;;;8.00;99.90;8.20;102448.00;;;;5092488;28;20181;-76
2022/03/02 01:18:13;;;;;;;0.30;0.30;;;8.00;99.90;8.40;102444.00;;;;5075367;28;20279;-76
2022/03/02 01:20:42;;;;;;;0.30;0.30;;;8.10;99.90;8.00;102444.00;;;;5092777;28;20166;-77
2022/03/02 01:23:13;;;;;;;0.70;0.70;;;8.00;99.90;8.00;102437.00;;;;5092105;28;20188;-77
2022/03/02 01:25:39;;;;;;;0.40;0.40;;;7.90;99.90;8.30;102374.00;;;;5075815;28;20195;-77
2022/03/02 01:28:10;;;;;;;0.33;0.33;;;8.00;99.90;7.70;102427.00;;;;5093128;28;20276;-76
2022/03/02 01:30:39;;;;;;;0.30;0.30;;;7.90;99.90;7.20;102428.00;;;;5076107;28;20181;-77
2022/03/02 01:33:11;;;;;;;0.53;0.53;;;7.70;99.90;7.10;102401.00;;;;5092621;28;20213;-75
2022/03/02 01:35:47;;;;;;;0.50;0.50;;;7.60;99.90;7.30;102389.00;;;;5093765;28;20161;-75
2022/03/02 01:38:21;;;;;;;0.40;0.40;;;7.60;99.90;6.90;102377.00;;;;5094422;28;20633;-75
2022/03/02 01:40:50;;;;;;;1.20;1.20;;;7.40;99.90;7.10;102370.00;;;;5092698;28;20211;-75
2022/03/02 01:43:27;;;;;;;0.50;0.50;;;7.50;99.90;7.20;102375.00;;;;5075284;28;20188;-75
2022/03/02 01:45:54;;;;;;;0.60;0.60;;;7.50;99.90;7.00;102377.00;;;;5077122;28;20206;-75
2022/03/02 01:48:20;;;;;;;3.07;1.50;;;7.40;99.90;6.90;102364.00;;;;5093619;28;20181;-76
2022/03/02 01:50:52;;;;;;;1.30;1.30;;;7.40;99.90;6.90;102360.00;;;;5093026;28;20252;-76
2022/03/02 01:53:21;;;;;;;0.40;0.40;;;7.40;99.90;6.80;102361.00;;;;5074056;28;20230;-76
2022/03/02 01:55:49;;;;;;;2.33;2.20;;;7.30;99.90;6.70;102353.00;;;;5076782;28;20225;-77
2022/03/02 01:58:36;;;;;;;0.40;0.40;;;7.20;99.90;6.70;102258.00;;;;5085898;28;20267;-76
2022/03/02 02:01:03;;;;;;;0.60;0.60;;;7.20;99.90;6.60;102275.00;;;;5113014;28;20180;-76
2022/03/02 02:03:37;;;;;;;0.40;0.40;;;7.10;99.90;7.00;102335.00;;;;5098571;28;20633;-76
2022/03/02 02:06:03;;;;;;;0.60;0.60;;;7.10;99.90;7.00;102278.00;;;;5115323;28;20600;-76
2022/03/02 02:08:34;;;;;;;1.10;1.10;;;7.30;99.90;6.80;102332.00;;;;5111933;28;20200;-76
2022/03/02 02:11:06;;;;;;;0.47;0.47;;;7.20;99.90;6.80;102331.00;;;;5111482;28;20168;-76
2022/03/02 02:13:34;;;;;;;0.40;0.40;;;7.20;99.90;7.10;102327.00;;;;5114290;28;20676;-77
2022/03/02 02:16:07;;;;;;;0.40;0.40;;;7.20;99.90;7.60;102332.00;;;;5114410;28;20248;-75
2022/03/02 02:18:44;;;;;;;0.50;0.50;;;7.50;99.90;7.10;102332.00;;;;5099296;28;20179;-76
2022/03/02 02:21:18;;;;;;;0.40;0.40;;;7.50;99.90;7.50;102334.00;;;;5092769;28;20198;-76
2022/03/02 02:23:50;;;;;;;0.50;0.50;;;7.50;99.90;7.10;102277.00;;;;5112444;28;20577;-76
2022/03/02 02:26:21;;;;;;;1.23;1.13;;;7.50;99.90;7.30;102319.00;;;;5112036;28;20167;-76
2022/03/02 02:28:53;;;;;;;2.00;1.90;;;7.60;99.90;7.70;102343.00;;;;5098502;28;20197;-76
2022/03/02 02:31:25;;;;;;;0.63;0.63;;;7.60;99.90;7.70;102336.00;;;;5089944;28;20220;-76
2022/03/02 02:33:53;;;;;;;3.20;3.00;;;7.80;99.90;7.80;102343.00;;;;5093657;28;20229;-75
2022/03/02 02:36:24;;;;;;;5.03;4.73;;;7.70;99.90;7.50;102334.00;;;;5092359;28;20233;-75
2022/03/02 02:38:55;;;;;;;1.40;0.97;;;7.70;99.90;7.10;102339.00;;;;5074260;28;20191;-75
2022/03/02 02:41:21;;;;;;;0.40;0.40;;;7.70;99.90;7.40;102319.00;;;;5076445;28;20173;-76
2022/03/02 02:43:47;;;;;;;0.60;0.60;;;7.50;99.90;8.00;102332.00;;;;5077513;28;20250;-75
2022/03/02 02:46:15;;;;;;;0.77;0.77;;;7.70;99.90;7.90;102343.00;;;;5093278;28;20184;-76
2022/03/02 02:48:41;;;;;;;1.03;0.80;;;7.80;99.90;8.00;102323.00;;;;5092150;28;20178;-76
2022/03/02 02:51:10;;;;;;;0.60;0.60;;;8.00;99.90;7.70;102346.00;;;;5074968;28;20188;-75
2022/03/02 02:53:35;;;;;;;0.40;0.40;;;7.80;99.90;7.70;102335.00;;;;5074450;28;20203;-75
2022/03/02 02:56:04;;;;;;;3.67;2.17;;;7.80;99.90;7.80;102339.00;;;;5075862;28;20177;-76
2022/03/02 02:58:41;;;;;;;1.07;1.07;;;7.80;99.90;7.70;102317.00;;;;5094218;28;20267;-76
2022/03/02 03:01:17;;;;;;;0.67;0.60;;;7.80;99.90;7.90;102345.00;;;;5092099;28;20230;-77
2022/03/02 03:03:56;;;;;;;1.63;1.53;;;7.80;99.90;8.00;102284.00;;;;5091454;28;20661;-78
2022/03/02 03:06:27;;;;;;;0.70;0.70;;;7.80;99.90;8.00;102320.00;;;;5094013;28;20198;-77
2022/03/02 03:08:58;;;;;;;0.40;0.40;;;7.80;99.90;7.90;102331.00;;;;5092161;28;20273;-76
2022/03/02 03:11:41;;;;;;;5.13;4.83;;;7.90;99.90;8.00;102325.00;;;;5090489;28;20245;-77
2022/03/02 03:14:15;;;;;;;3.03;1.57;;;7.90;99.90;7.70;102316.00;;;;5074728;28;20177;-76
2022/03/02 03:16:52;;;;;;;1.27;1.10;;;7.70;99.90;7.60;102322.00;;;;5090636;28;20263;-77
2022/03/02 03:19:26;;;;;;;1.47;1.37;;;7.70;99.90;7.80;102325.00;;;;5093844;28;20175;-77
2022/03/02 03:22:08;;;;;;;0.30;0.30;;;7.70;99.90;7.80;102342.00;;;;5094973;28;20206;-75
2022/03/02 03:24:47;;;;;;;1.70;1.70;;;7.80;99.90;7.60;102326.00;;;;5095079;28;20182;-76
2022/03/02 03:27:24;;;;;;;0.87;0.87;;;7.60;99.90;7.30;102316.00;;;;5095745;28;20179;-76
2022/03/02 03:30:08;;;;;;;0.43;0.43;;;7.40;99.90;7.40;102313.00;;;;5097709;28;20190;-76
2022/03/02 03:32:34;;;;;;;0.67;0.67;;;7.40;99.90;7.00;102314.00;;;;5098194;28;20218;-76
2022/03/02 03:35:12;;;;;;;1.00;1.00;;;7.30;99.90;7.40;102257.00;;;;5114060;28;20173;-76
2022/03/02 03:37:39;;;;;;;1.80;1.80;;;7.40;99.90;7.10;102312.00;;;;5115429;28;20189;-76
2022/03/02 03:40:08;;;;;;;1.03;1.00;;;7.20;99.90;6.80;102306.00;;;;5114251;28;20164;-76
2022/03/02 03:42:40;;;;;;;0.80;0.80;;;7.20;99.90;6.30;102309.00;;;;5115558;28;20544;-76
2022/03/02 03:45:20;;;;;;;0.30;0.30;;;7.00;99.90;7.10;102305.00;;;;5115148;28;20174;-76
2022/03/02 03:48:00;;;;;;;0.43;0.43;;;7.10;99.90;7.10;102310.00;;;;5114556;28;20176;-78
2022/03/02 03:50:30;;;;;;;1.23;1.23;;;7.10;99.90;7.40;102325.00;;;;5115434;28;20193;-77
2022/03/02 03:53:05;;;;;;;1.90;1.80;;;7.30;99.90;7.40;102333.00;;;;5114753;28;20341;-77
2022/03/02 03:55:39;;;;;;;1.07;1.07;;;7.50;99.90;7.70;102343.00;;;;5114732;28;20221;-77
2022/03/02 03:58:10;;;;;;;3.07;2.87;;;7.50;99.90;7.80;102336.00;;;;5114347;28;20194;-76
2022/03/02 04:00:47;;;;;;;0.30;0.30;;;7.60;99.90;7.40;102340.00;;;;5114398;28;20537;-76
2022/03/02 04:03:29;;;;;;;1.17;1.17;;;7.40;99.90;7.30;102326.00;;;;5116231;28;20166;-76
2022/03/02 04:06:06;;;;;;;2.83;1.33;;;7.40;99.90;7.00;102317.00;;;;5114270;28;20157;-76
2022/03/02 04:08:38;;;;;;;0.40;0.40;;;7.30;99.90;7.20;102300.00;;;;5113625;28;20583;-76
2022/03/02 04:11:12;;;;;;;0.83;0.83;;;7.30;99.90;7.50;102329.00;;;;5097633;28;20183;-76
2022/03/02 04:13:49;;;;;;;0.30;0.30;;;7.30;99.90;7.40;102270.00;;;;5114587;28;20226;-76
2022/03/02 04:16:26;;;;;;;0.93;0.93;;;7.50;99.90;7.40;102314.00;;;;5114599;28;20625;-76
2022/03/02 04:19:04;;;;;;;0.60;0.60;;;7.30;99.90;7.60;102313.00;;;;5115105;28;20246;-75
2022/03/02 04:21:41;;;;;;;0.40;0.40;;;7.30;99.90;7.30;102307.00;;;;5114008;28;20173;-75
2022/03/02 04:24:17;;;;;;;0.57;0.57;;;7.40;99.90;7.40;102301.00;;;;5114643;28;20180;-78
2022/03/02 04:26:51;;;;;;;2.67;2.57;;;7.30;99.90;7.10;102306.00;;;;5112652;28;20199;-76
2022/03/02 04:29:33;;;;;;;0.30;0.30;;;7.20;99.90;7.10;102301.00;;;;5084551;28;20200;-77
2022/03/02 04:32:10;;;;;;;0.30;0.30;;;7.10;99.90;6.80;102300.00;;;;5093914;28;20214;-78
2022/03/02 04:34:46;;;;;;;0.80;0.80;;;7.00;99.90;6.80;102301.00;;;;5094144;28;20246;-78
2022/03/02 04:37:23;;;;;;;0.30;0.30;;;7.00;99.90;6.70;102284.00;;;;5092956;28;20190;-77
2022/03/02 04:39:52;;;;;;;0.50;0.50;;;6.70;99.90;6.70;102252.00;;;;5093040;28;20184;-78
2022/03/02 04:42:18;;;;;;;2.40;2.20;;;6.80;99.90;6.70;102281.00;;;;5076475;28;20247;-79
2022/03/02 04:44:54;;;;;;;1.50;1.40;;;6.80;99.90;6.50;102224.00;;;;5076910;28;20180;-77
2022/03/02 04:47:30;;;;;;;1.77;1.60;;;6.80;99.90;6.20;102255.00;;;;5094027;28;20265;-77
2022/03/02 04:50:05;;;;;;;0.30;0.30;;;6.50;99.90;6.30;102262.00;;;;5094178;28;20183;-73
2022/03/02 04:52:42;;;;;;;0.20;0.20;;;6.50;99.90;6.20;102198.00;;;;5075265;28;20200;-75
2022/03/02 04:55:22;;;;;;;0.83;0.80;;;6.50;99.90;6.30;102268.00;;;;5092923;28;20231;-76
2022/03/02 04:58:02;;;;;;;1.47;1.47;;;6.50;99.90;6.30;102263.00;;;;5076158;28;20218;-76
2022/03/02 05:00:37;;;;;;;1.07;1.07;;;6.50;99.90;5.80;102248.00;;;;5076538;28;20186;-75
2022/03/02 05:03:17;;;;;;;0.70;0.70;;;6.40;99.90;5.90;102243.00;;;;5094657;28;20215;-75
2022/03/02 05:05:57;;;;;;;0.40;0.40;;;6.20;99.90;6.10;102230.00;;;;5093617;28;20486;-74
2022/03/02 05:08:37;;;;;;;2.97;2.57;;;6.20;99.90;6.00;102232.00;;;;5092697;28;20220;-75
2022/03/02 05:11:13;;;;;;;1.90;1.80;;;6.30;99.90;5.90;102236.00;;;;5093825;28;20170;-75
2022/03/02 05:13:44;;;;;;;0.37;0.37;;;6.30;99.90;6.30;102233.00;;;;5092912;28;20183;-75
2022/03/02 05:16:20;;;;;;;0.90;0.90;;;6.40;99.90;6.20;102241.00;;;;5093385;28;20245;-76
2022/03/02 05:18:51;;;;;;;0.37;0.37;;;6.40;99.90;6.30;102209.00;;;;5076681;28;20176;-75
2022/03/02 05:21:22;;;;;;;6.03;4.70;;;6.40;99.90;6.50;102244.00;;;;5092594;28;20180;-76
2022/03/02 05:23:55;;;;;;;2.60;1.53;;;6.60;99.90;6.80;102252.00;;;;5094038;28;20547;-76
2022/03/02 05:26:24;;;;;;;0.30;0.30;;;6.70;99.90;6.20;102256.00;;;;5093935;28;20718;-75
2022/03/02 05:28:55;;;;;;;0.30;0.30;;;6.50;99.90;6.40;102240.00;;;;5074595;28;20186;-75
2022/03/02 05:31:28;;;;;;;0.97;0.97;;;6.50;99.90;6.40;102248.00;;;;5093136;28;20330;-75
2022/03/02 05:34:08;;;;;;;6.30;1.93;;;6.50;99.90;6.00;102182.00;;;;5092954;28;20164;-75
2022/03/02 05:36:44;;;;;;;0.23;0.23;;;6.50;99.90;6.40;102240.00;;;;5090394;28;20241;-75
2022/03/02 05:39:19;;;;;;;2.00;1.80;;;6.50;99.90;6.10;102225.00;;;;5092704;28;20182;-75
2022/03/02 05:41:53;;;;;;;0.40;0.40;;;6.50;99.90;6.40;102240.00;;;;5092410;28;20219;-75
2022/03/02 05:44:19;;;;;;;16.43;4.30;;;6.50;99.90;6.10;102226.00;;;;5092106;28;20179;-74
2022/03/02 05:46:52;;;;;;;2.10;2.03;;;6.40;99.90;5.90;102228.00;;;;5075987;28;20182;-75
2022/03/02 05:49:27;;;;;;;0.50;0.50;;;6.40;99.90;6.20;102237.00;;;;5074706;28;20178;-75
2022/03/02 05:52:03;;;;;;;1.00;1.00;;;6.40;99.90;6.60;102231.00;;;;5092294;28;20338;-75
2022/03/02 05:54:37;;;;;;;0.40;0.40;;;6.40;99.90;6.40;102176.00;;;;5074033;28;20181;-75
2022/03/02 05:57:19;;;;;;;0.30;0.30;;;6.50;99.90;5.90;102227.00;;;;5074612;28;20627;-75
2022/03/02 05:59:55;;;;;;;1.77;1.77;;;6.30;99.90;6.40;102233.00;;;;5103935;28;20194;-75
2022/03/02 06:02:33;;;;;;;0.30;0.30;;;6.40;99.90;6.30;102243.00;;;;5095110;28;20182;-74
2022/03/02 06:05:11;;;;;;;0.30;0.30;;;6.50;99.90;6.80;102249.00;;;;5112051;28;20162;-75
2022/03/02 06:07:50;;;;;;;0.70;0.70;;;6.70;99.90;6.30;102236.00;;;;5095931;28;20318;-75
2022/03/02 06:10:27;;;;;;;1.93;1.83;;;6.50;99.90;6.80;102241.00;;;;5112734;28;20176;-75
2022/03/02 06:13:01;;;;;;;8.10;1.60;;;6.70;99.90;6.20;102245.00;;;;5112504;28;20192;-76
2022/03/02 06:15:38;;;;;;;1.43;1.37;;;6.50;99.90;6.50;102232.00;;;;5112794;28;20174;-75
2022/03/02 06:18:10;;;;;;;2.73;1.53;;;6.50;99.90;6.80;102263.00;;;;5113148;28;20170;-75
2022/03/02 06:20:47;;;;;;;1.07;1.07;;;6.70;99.90;6.80;102244.00;;;;5112260;28;20549;-75
2022/03/02 06:23:22;;;;;;;0.60;0.60;;;6.70;99.90;6.90;102270.00;;;;5094181;28;20192;-75
2022/03/02 06:26:01;;;;;;;0.40;0.40;;;6.80;99.90;6.70;102255.00;;;;5112570;28;20175;-75
2022/03/02 06:28:35;;;;;;;1.57;1.47;;;6.70;99.90;6.90;102268.00;;;;5110190;28;20257;-76
2022/03/02 06:31:18;;;;;;;0.30;0.30;;;6.80;99.90;6.50;102207.00;;;;5074956;28;20284;-74
2022/03/02 06:33:51;;;;;;;0.40;0.40;;;6.70;99.90;6.40;102241.00;;;;5091552;28;20177;-73
2022/03/02 06:36:23;;;;;;;1.17;1.17;;;6.60;99.90;5.80;102185.00;;;;5091239;28;20177;-74
2022/03/02 06:39:05;;;;;;;1.60;1.50;;;6.30;99.90;6.00;102177.00;;;;5092943;28;20184;-73
2022/03/02 06:41:56;;;;;;;0.30;0.30;;;6.10;99.90;6.20;102191.00;;;;5092268;28;20196;-75
2022/03/02 06:44:46;;;;;;;2.43;2.27;;;6.40;99.90;5.90;102221.00;;;;5091990;28;20173;-75
2022/03/02 06:47:16;;;;;;;1.23;1.23;;;6.30;99.90;5.40;102245.00;;;;5091006;28;20177;-74
2022/03/02 06:50:29;;;;;;;1.67;1.57;;;6.10;99.90;6.00;102238.00;;;;5091089;28;20178;-74
2022/03/02 06:53:05;;;;;;;0.47;0.47;;;6.10;99.90;6.60;102252.00;;;;5075549;28;20274;-74
2022/03/02 06:55:44;;;;;;;2.00;1.80;;;6.40;99.90;6.30;102278.00;;;;5078295;28;20662;-74
2022/03/02 06:58:28;;;;;;;0.20;0.20;;;6.40;99.90;5.40;102253.00;;;;5095287;28;20184;-77
2022/03/02 07:01:06;;;;;;;0.30;0.30;;;6.20;99.90;6.00;102258.00;;;;5096495;28;20177;-77
2022/03/02 07:03:47;;;;;;;0.30;0.30;;;6.10;99.90;5.60;102245.00;;;;5096112;28;20177;-76
2022/03/02 07:06:17;;;;;;;1.37;0.97;;;6.10;99.90;5.50;102250.00;;;;5095210;28;20182;-76
2022/03/02 07:08:48;;;;;;;0.80;0.80;;;6.00;99.90;6.20;102193.00;;;;5096501;28;20527;-76
2022/03/02 07:11:23;;;;;;;0.20;0.20;;;6.20;99.90;6.20;102258.00;;;;5077462;28;20603;-76
2022/03/02 07:14:15;;;;;;;2.57;2.47;;;6.30;99.90;5.80;102182.00;;;;5095716;28;20178;-78
2022/03/02 07:16:54;;;;;;;0.30;0.30;;;6.20;99.90;6.60;102259.00;;;;5081060;28;20275;-78
2022/03/02 07:19:31;;;;;;;0.73;0.73;;;6.50;99.90;6.90;102265.00;;;;5095067;28;20178;-77
2022/03/02 07:22:16;;;;;;;0.60;0.60;;;6.70;99.90;6.90;102270.00;;;;5095483;28;20184;-77
2022/03/02 07:25:08;;;;;;;0.53;0.53;;;6.90;99.90;7.30;102244.00;;;;5078016;28;20194;-78
2022/03/02 07:27:46;;;;;;;5.33;2.70;;;7.10;99.90;6.80;102276.00;;;;5078453;28;20183;-77
2022/03/02 07:30:23;;;;;;;2.77;2.57;;;7.00;99.90;6.50;102232.00;;;;5094575;28;20265;-76
2022/03/02 07:33:15;;;;;;;2.63;2.43;;;6.90;99.90;7.20;102293.00;;;;5094063;28;20238;-75
2022/03/02 07:36:54;;;;;;;0.60;0.60;;;7.10;99.90;7.10;102300.00;;;;5095024;28;20600;-76
2022/03/02 07:39:33;;;;;;;4.33;2.47;;;7.30;99.90;6.70;102293.00;;;;5072014;28;20202;-76
2022/03/02 07:42:12;;;;;;;1.70;1.13;;;7.00;99.90;6.80;102265.00;;;;5076082;28;20818;-76
2022/03/02 07:44:44;;;;;;;4.27;3.97;;;6.90;99.90;7.30;102229.00;;;;5095550;28;20210;-75
2022/03/02 07:47:22;;;;;;;5.37;5.03;;;7.20;99.90;6.40;102291.00;;;;5076910;28;20184;-75
2022/03/02 07:49:48;;;;;;;0.30;0.30;;;7.10;99.90;6.90;102283.00;;;;5095732;28;20161;-76
2022/03/02 07:52:20;;;;;;;0.80;0.80;;;7.00;99.90;6.80;102277.00;;;;5094813;28;20211;-76
2022/03/02 07:54:57;;;;;;;4.20;3.87;;;7.20;99.90;6.60;102278.00;;;;5078351;28;20177;-75
2022/03/02 07:57:25;;;;;;;2.43;2.17;;;7.00;99.90;6.50;102280.00;;;;5093569;28;20204;-77
2022/03/02 07:59:55;;;;;;;1.60;1.53;;;6.90;99.90;6.80;102273.00;;;;5077512;28;20185;-77
2022/03/02 08:02:24;;;;;;;1.20;1.10;;;7.00;99.90;7.40;102271.00;;;;5077521;28;20756;-77
2022/03/02 08:05:04;;;;;;;0.40;0.40;;;7.30;99.90;6.80;102265.00;;;;5093557;28;20223;-77
2022/03/02 08:07:32;;;;;;;0.70;0.60;;;7.30;99.90;7.30;102284.00;;;;5095648;28;20165;-76
2022/03/02 08:10:10;;;;;;;4.17;3.43;;;7.30;99.90;6.60;102276.00;;;;5078042;28;20181;-78
2022/03/02 08:12:42;;;;;;;2.57;2.37;;;7.20;99.90;6.60;102276.00;;;;5094308;28;20205;-79
2022/03/02 08:15:13;;;;;;;6.73;3.73;;;6.90;99.90;5.70;102260.00;;;;5077884;28;20263;-77
2022/03/02 08:17:46;;;;;;;0.70;0.70;;;6.60;99.90;6.70;102256.00;;;;5094241;28;20197;-76
2022/03/02 08:20:18;;;;;;;5.03;2.63;;;6.80;99.90;6.80;102250.00;;;;5093027;28;20174;-75
2022/03/02 08:22:55;;;;;;;6.10;3.73;;;7.00;99.90;6.60;102261.00;;;;5085261;28;20614;-77
2022/03/02 08:25:34;;;;;;;4.63;4.33;;;7.10;99.90;7.10;102260.00;;;;5083406;28;20595;-77
2022/03/02 08:28:04;;;;;;;0.63;0.63;;;7.20;99.90;7.40;102280.00;;;;5093985;28;20608;-77
2022/03/02 08:30:32;;;;;;;0.40;0.40;;;7.40;99.90;7.30;102284.00;;;;5086020;28;20241;-77
2022/03/02 08:33:01;;;;;;;3.60;2.87;;;7.50;99.90;7.40;102297.00;;;;5113735;28;20656;-77
2022/03/02 08:35:35;;;;;;;2.53;2.33;;;7.60;99.90;6.90;102284.00;;;;5114083;28;20185;-77
2022/03/02 08:38:02;;;;;;;3.50;2.87;;;7.40;99.90;6.80;102278.00;;;;5116017;28;20180;-75
2022/03/02 08:40:28;;;;;;;4.20;3.80;;;7.30;99.90;7.30;102281.00;;;;5106296;28;20640;-76
2022/03/02 08:43:21;;;;;;;2.77;1.87;;;7.30;99.90;6.60;102234.00;;;;5094982;28;20185;-76
2022/03/02 08:45:55;;;;;;;1.30;1.03;;;7.30;99.90;7.00;102271.00;;;;5096039;28;20636;-76
2022/03/02 08:48:29;;;;;;;3.47;2.87;;;7.30;99.90;6.70;102269.00;;;;5099518;28;20192;-76
2022/03/02 08:51:04;;;;;;;4.00;3.07;;;7.30;99.90;6.90;102263.00;;;;5084309;28;20253;-76
2022/03/02 08:54:22;;;;;;;6.13;2.73;;;7.40;99.90;7.00;102256.00;;;;5093954;28;20192;-75
2022/03/02 08:57:10;;;;;;;3.80;2.33;;;7.50;99.90;7.80;102254.00;;;;5094478;28;20181;-76
2022/03/02 09:00:36;;;;;;;0.63;0.63;;;7.80;99.90;8.50;102301.00;;;;5093380;28;20226;-74
2022/03/02 09:03:04;;;;;;;4.30;3.03;;;8.20;99.90;7.20;102280.00;;;;5093381;28;20238;-72
2022/03/02 09:06:22;;;;;;;0.93;0.93;;;7.90;99.90;6.80;102257.00;;;;5093584;28;20215;-73
2022/03/02 09:09:08;;;;;;;0.87;0.87;;;7.50;99.90;7.80;102261.00;;;;5077243;28;20203;-74
2022/03/02 09:11:34;;;;;;;6.10;4.33;;;7.80;99.90;7.40;102273.00;;;;5096570;28;20198;-73
2022/03/02 09:14:03;;;;;;;2.30;2.10;;;7.90;99.90;7.10;102251.00;;;;5103007;28;20263;-74
2022/03/02 09:16:39;;;;;;;3.70;1.73;;;7.80;99.90;7.80;102274.00;;;;5088665;28;20217;-75
2022/03/02 09:19:12;;;;;;;3.10;2.20;;;7.80;99.90;8.50;102276.00;;;;5101953;28;20171;-74
2022/03/02 09:22:15;;;;;;;2.10;2.00;;;8.30;99.90;7.60;102272.00;;;;5105482;28;20187;-71
2022/03/02 09:24:43;;;;;;;2.77;2.53;;;8.00;99.90;6.90;102244.00;;;;5090866;28;20178;-72
2022/03/02 09:27:38;;;;;;;2.10;0.73;;;7.60;99.90;7.70;102241.00;;;;5103294;28;20177;-74
2022/03/02 09:30:08;;;;;;;1.60;1.50;;;7.80;99.90;8.40;102261.00;;;;5086778;28;20223;-74
2022/03/02 09:32:41;;;;;;;1.50;1.43;;;8.30;99.90;8.30;102251.00;;;;5088765;28;20235;-74
2022/03/02 09:35:13;;;;;;;4.50;3.10;;;8.40;99.90;8.40;102286.00;;;;5103687;28;20184;-74
2022/03/02 09:37:43;;;;;;;0.67;0.60;;;8.50;99.90;8.50;102283.00;;;;5100701;28;20173;-74
2022/03/02 09:40:26;;;;;;;8.53;5.70;;;8.60;99.90;7.90;102286.00;;;;5103263;28;20236;-74
2022/03/02 09:43:05;;;;;;;2.77;2.33;;;8.50;99.90;8.20;102269.00;;;;5087916;28;20676;-74
2022/03/02 09:45:34;;;;;;;11.80;2.90;;;8.30;99.90;8.70;102267.00;;;;5092758;28;20185;-74
2022/03/02 09:48:04;;;;;;;7.07;5.10;;;8.60;99.90;7.70;102216.00;;;;5093245;28;20184;-75
2022/03/02 09:50:36;;;;;;;4.40;4.03;;;8.50;99.90;8.30;102261.00;;;;5092193;28;20193;-75
2022/03/02 09:53:08;;;;;;;1.33;1.23;;;8.40;99.90;8.70;102272.00;;;;5103691;28;20510;-74
2022/03/02 09:55:40;;;;;;;6.73;4.50;;;8.60;99.90;8.40;102275.00;;;;5103593;28;20185;-74
2022/03/02 09:58:10;;;;;;;0.30;0.30;;;8.60;99.90;9.10;102270.00;;;;5092691;28;20530;-72
2022/03/02 10:00:36;;;;;;;2.73;2.20;;;8.90;99.90;9.10;102293.00;;;;5092109;28;20646;-65
2022/03/02 10:03:06;;;;;;;2.33;2.13;;;9.20;99.90;9.00;102285.00;;;;5093229;28;20276;-78
2022/03/02 10:05:48;;;;;;;1.50;1.37;;;9.30;99.90;8.90;102293.00;;;;5075515;28;20521;-80
2022/03/02 10:08:25;;;;;;;2.33;2.13;;;9.30;99.90;8.90;102227.00;;;;5110106;28;20207;-79
2022/03/02 10:11:03;;;;;;;4.97;3.80;;;9.10;99.90;9.60;102236.00;;;;5091301;28;20705;-78
2022/03/02 10:13:33;;;;;;;3.73;3.40;;;9.30;99.90;8.40;102274.00;;;;5091962;28;20252;-80
2022/03/02 10:16:05;;;;;;;3.33;2.90;;;9.00;99.90;8.80;102283.00;;;;5091821;28;20170;-77
2022/03/02 10:18:37;;;;;;;0.40;0.40;;;9.10;99.90;9.50;102285.00;;;;5093803;28;20181;-77
2022/03/02 10:33:25;;;;;;;5.47;5.20;;;9.70;99.90;10.00;102305.00;;;;5112644;27;1327965;-75
2022/03/02 10:36:04;;;;;;;1.13;1.13;;;10.10;99.90;10.40;102319.00;;;;5130104;28;20190;-76
2022/03/02 10:39:04;;;;;;;5.20;4.00;;;10.40;99.90;10.20;102240.00;;;;5113232;28;20185;-76
2022/03/02 10:41:43;;;;;;;0.30;0.30;;;10.40;99.90;10.70;102251.00;;;;5131504;27;20184;-76
2022/03/02 10:45:05;;;;;;;3.73;2.63;;;10.60;99.90;11.00;102238.00;;;;5130311;28;20166;-77
2022/03/02 10:47:36;;;;;;;6.30;3.07;;;11.00;99.90;11.20;102131.00;;;;5113576;28;20207;-72
2022/03/02 10:50:05;;;;;;;4.70;4.17;;;11.20;99.90;11.60;102218.00;;;;5121863;28;20179;-67
2022/03/02 10:52:41;;;;;;;15.00;3.97;;;11.50;99.90;11.90;102219.00;;;;5122304;28;20726;-69
2022/03/02 10:55:11;;;;;;;2.93;2.73;;;11.80;99.90;11.80;102233.00;;;;5089509;28;20234;-71
2022/03/02 10:57:45;;;;;;;1.97;1.83;;;11.80;99.90;12.10;102224.00;;;;5090710;28;20296;-70
2022/03/02 11:00:18;;;;;;;3.23;2.73;;;12.10;99.90;11.80;102196.00;;;;5106502;28;20176;-74
2022/03/02 11:02:57;;;;;;;8.33;4.87;;;12.00;99.90;12.00;102229.00;;;;5105177;28;20184;-73
2022/03/02 11:05:25;;;;;;;2.63;2.13;;;12.00;99.90;11.90;102178.00;;;;5105499;28;20269;-72
2022/03/02 11:07:52;;;;;;;3.50;3.10;;;11.90;99.90;12.40;102215.00;;;;5106741;28;20190;-68
2022/03/02 11:10:30;;;;;;;2.10;1.87;;;12.20;99.90;12.60;102215.00;;;;5103848;28;20190;-70
2022/03/02 11:12:57;;;;;;;2.73;2.53;;;12.30;99.90;12.80;102209.00;;;;5107845;28;20195;-77
2022/03/02 11:15:23;;;;;;;9.23;6.03;;;12.60;99.90;11.50;102216.00;;;;5102141;28;20186;-62
2022/03/02 11:17:58;;;;;;;6.07;2.10;;;12.20;99.90;11.70;102193.00;;;;5127158;27;20196;-72
2022/03/02 11:20:27;;;;;;;4.47;2.10;;;12.00;99.90;12.30;102190.00;;;;5127783;27;20155;-78
2022/03/02 11:23:04;;;;;;;0.77;0.77;;;12.10;99.90;12.60;102175.00;;;;5103710;28;20711;-80
2022/03/02 11:25:54;;;;;;;4.90;3.63;;;12.30;99.90;12.30;102152.00;;;;5107369;28;20692;-73
2022/03/02 11:28:28;;;;;;;1.00;1.00;;;12.60;99.90;13.10;102173.00;;;;5090177;28;20256;-73
2022/03/02 11:31:04;;;;;;;5.33;4.83;;;13.00;99.90;12.90;102185.00;;;;5107009;28;20515;-73
2022/03/02 11:33:30;;;;;;;0.77;0.67;;;13.00;99.90;13.30;102162.00;;;;5090640;28;20189;-73
2022/03/02 11:36:10;;;;;;;3.50;2.30;;;13.10;99.90;13.00;102174.00;;;;5090790;28;20176;-65
2022/03/02 11:38:42;;;;;;;3.83;2.07;;;13.20;99.90;13.30;102159.00;;;;5107520;28;20183;-76
2022/03/02 11:41:11;;;;;;;2.07;1.67;;;13.20;99.90;13.10;102102.00;;;;5097486;28;20248;-76
2022/03/02 11:43:38;;;;;;;2.97;2.50;;;13.30;98.00;13.70;102146.00;;;;5119311;28;20667;-72
2022/03/02 11:46:10;;;;;;;3.80;2.43;;;13.50;96.80;13.40;102148.00;;;;5113800;28;20192;-71